createdAt,value
2023-03-13T00:00:56.993Z,12.86
2023-03-13T00:03:23.775Z,12.90
2023-03-13T00:05:50.310Z,12.82
2023-03-13T00:08:16.821Z,12.84
2023-03-13T00:10:43.324Z,12.89
2023-03-13T00:13:10.388Z,12.95
2023-03-13T00:15:36.953Z,12.70
2023-03-13T00:18:03.758Z,12.75
2023-03-13T00:20:30.305Z,12.77
2023-03-13T00:22:57.317Z,12.73
2023-03-13T00:25:23.852Z,12.74
2023-03-13T00:27:50.483Z,12.80
2023-03-13T00:30:17.307Z,12.81
2023-03-13T00:32:48.778Z,12.82
2023-03-13T00:35:16.330Z,12.82
2023-03-13T00:37:43.249Z,12.81
2023-03-13T00:40:10.752Z,12.85
2023-03-13T00:42:37.311Z,12.77
2023-03-13T00:45:04.378Z,12.78
2023-03-13T00:47:30.938Z,12.87
2023-03-13T00:49:57.832Z,12.86
2023-03-13T00:52:25.054Z,12.86
2023-03-13T00:54:51.673Z,12.83
2023-03-13T00:57:18.192Z,12.83
2023-03-13T00:59:44.727Z,12.80
2023-03-13T01:02:11.345Z,12.75
2023-03-13T01:04:37.909Z,12.73
2023-03-13T01:07:04.415Z,12.73
2023-03-13T01:09:30.970Z,12.74
2023-03-13T01:11:57.487Z,12.66
2023-03-13T01:14:23.993Z,12.63
2023-03-13T01:16:50.672Z,12.67
2023-03-13T01:19:17.385Z,12.64
2023-03-13T01:21:45.136Z,12.54
2023-03-13T01:24:11.963Z,12.64
2023-03-13T01:26:38.538Z,12.53
2023-03-13T01:29:05.213Z,12.49
2023-03-13T01:31:34.560Z,12.49
2023-03-13T01:34:04.800Z,12.33
2023-03-13T01:36:32.517Z,12.29
2023-03-13T01:39:01.700Z,12.34
2023-03-13T01:41:30.940Z,12.34
2023-03-13T01:43:58.322Z,12.40
2023-03-13T01:46:30.143Z,12.31
2023-03-13T01:49:09.081Z,12.32
2023-03-13T01:52:01.288Z,12.26
2023-03-13T01:54:39.269Z,12.31
2023-03-13T01:57:29.533Z,12.26
2023-03-13T02:00:05.039Z,12.20
2023-03-13T02:02:32.296Z,12.18
2023-03-13T02:05:02.962Z,12.17
2023-03-13T02:07:41.553Z,12.15
2023-03-13T02:10:10.198Z,12.13
2023-03-13T02:12:39.641Z,12.13
2023-03-13T02:15:11.674Z,12.16
2023-03-13T02:17:40.636Z,12.19
2023-03-13T02:20:07.964Z,12.13
2023-03-13T02:22:54.045Z,12.16
2023-03-13T02:25:23.293Z,12.14
2023-03-13T02:27:58.374Z,12.22
2023-03-13T02:30:25.187Z,12.22
2023-03-13T02:32:52.009Z,12.28
2023-03-13T02:35:21.886Z,12.24
2023-03-13T02:37:52.702Z,12.22
2023-03-13T02:40:26.544Z,12.13
2023-03-13T02:42:55.578Z,12.15
2023-03-13T02:45:22.592Z,12.11
2023-03-13T02:47:49.371Z,12.12
2023-03-13T02:50:16.498Z,12.11
2023-03-13T02:52:51.014Z,12.11
2023-03-13T02:55:24.529Z,12.08
2023-03-13T02:57:51.186Z,12.07
2023-03-13T03:00:18.412Z,12.05
2023-03-13T03:02:45.640Z,12.02
2023-03-13T03:05:12.874Z,12.07
2023-03-13T03:07:39.425Z,12.05
2023-03-13T03:10:06.788Z,12.00
2023-03-13T03:12:33.381Z,12.09
2023-03-13T03:14:59.986Z,12.19
2023-03-13T03:17:26.542Z,12.17
2023-03-13T03:19:53.071Z,12.24
2023-03-13T03:22:19.589Z,12.22
2023-03-13T03:24:46.090Z,12.22
2023-03-13T03:27:12.614Z,12.22
2023-03-13T03:29:39.186Z,12.20
2023-03-13T03:32:06.057Z,12.20
2023-03-13T03:34:33.168Z,12.19
2023-03-13T03:36:59.727Z,12.13
2023-03-13T03:39:26.268Z,12.12
2023-03-13T03:41:52.790Z,12.12
2023-03-13T03:44:19.302Z,12.07
2023-03-13T03:46:45.844Z,12.09
2023-03-13T03:49:12.440Z,12.05
2023-03-13T03:51:39.583Z,12.10
2023-03-13T03:54:06.161Z,12.08
2023-03-13T03:56:32.690Z,12.06
2023-03-13T03:58:59.237Z,12.05
2023-03-13T04:01:25.748Z,12.13
2023-03-13T04:03:52.277Z,12.09
2023-03-13T04:06:18.783Z,12.13
2023-03-13T04:08:45.322Z,12.17
2023-03-13T04:11:11.855Z,12.21
2023-03-13T04:13:38.351Z,12.24
2023-03-13T04:16:11.777Z,12.20
2023-03-13T04:18:38.299Z,12.15
2023-03-13T04:21:06.041Z,12.17
2023-03-13T04:23:32.622Z,12.22
2023-03-13T04:25:59.124Z,12.13
2023-03-13T04:28:25.666Z,12.15
2023-03-13T04:30:57.361Z,12.12
2023-03-13T04:33:24.927Z,12.06
2023-03-13T04:35:51.535Z,12.04
2023-03-13T04:38:18.086Z,12.04
2023-03-13T04:40:45.674Z,11.95
2023-03-13T04:43:12.839Z,11.98
2023-03-13T04:45:39.338Z,12.02
2023-03-13T04:48:06.145Z,12.02
2023-03-13T04:50:32.695Z,11.97
2023-03-13T04:52:59.217Z,12.08
2023-03-13T04:55:25.710Z,11.99
2023-03-13T04:57:52.301Z,11.96
2023-03-13T05:00:19.154Z,11.93
2023-03-13T05:02:45.676Z,11.95
2023-03-13T05:05:12.283Z,11.94
2023-03-13T05:07:39.021Z,11.84
2023-03-13T05:10:05.685Z,11.90
2023-03-13T05:12:32.253Z,11.80
2023-03-13T05:14:58.838Z,11.87
2023-03-13T05:17:25.390Z,11.84
2023-03-13T05:19:51.866Z,11.78
2023-03-13T05:22:18.370Z,11.81
2023-03-13T05:24:45.068Z,11.80
2023-03-13T05:27:11.596Z,11.66
2023-03-13T05:29:38.253Z,11.62
2023-03-13T05:32:04.845Z,11.60
2023-03-13T05:34:31.365Z,11.54
2023-03-13T05:36:57.940Z,11.52
2023-03-13T05:39:24.481Z,11.52
2023-03-13T05:41:50.975Z,11.47
2023-03-13T05:44:17.640Z,11.48
2023-03-13T05:46:44.191Z,11.47
2023-03-13T05:49:10.768Z,11.43
2023-03-13T05:51:37.285Z,11.43
2023-03-13T05:54:03.920Z,11.35
2023-03-13T05:56:30.495Z,11.32
2023-03-13T05:58:56.995Z,11.48
2023-03-13T06:01:23.538Z,11.38
2023-03-13T06:03:50.199Z,11.38
2023-03-13T06:06:16.817Z,11.31
2023-03-13T06:08:43.319Z,11.25
2023-03-13T06:11:09.890Z,11.22
2023-03-13T06:13:36.423Z,11.18
2023-03-13T06:16:03.354Z,11.16
2023-03-13T06:18:30.137Z,11.26
2023-03-13T06:20:59.036Z,11.26
2023-03-13T06:23:25.781Z,11.13
2023-03-13T06:25:52.441Z,10.98
2023-03-13T06:28:19.465Z,10.96
2023-03-13T06:30:46.405Z,11.06
2023-03-13T06:33:13.085Z,10.97
2023-03-13T06:35:55.071Z,11.04
2023-03-13T06:38:22.209Z,11.07
2023-03-13T06:40:48.928Z,11.05
2023-03-13T06:43:15.480Z,10.97
2023-03-13T06:45:42.133Z,11.03
2023-03-13T06:48:08.664Z,11.06
2023-03-13T06:50:39.109Z,11.05
2023-03-13T06:53:06.159Z,11.09
2023-03-13T06:55:32.863Z,11.20
2023-03-13T06:57:59.449Z,11.27
2023-03-13T07:00:26.108Z,11.28
2023-03-13T07:02:52.695Z,11.33
2023-03-13T07:05:19.933Z,11.37
2023-03-13T07:07:46.497Z,11.38
2023-03-13T07:10:13.296Z,11.39
2023-03-13T07:12:39.887Z,11.43
2023-03-13T07:15:07.271Z,11.51
2023-03-13T07:17:34.242Z,11.58
2023-03-13T07:20:00.938Z,11.64
2023-03-13T07:22:27.564Z,11.75
2023-03-13T07:24:54.178Z,11.86
2023-03-13T07:27:23.452Z,11.93
2023-03-13T07:29:50.018Z,11.93
2023-03-13T07:32:17.544Z,11.97
2023-03-13T07:34:44.734Z,12.05
2023-03-13T07:37:13.065Z,12.08
2023-03-13T07:39:39.747Z,12.06
2023-03-13T07:42:06.492Z,12.04
2023-03-13T07:44:33.041Z,12.02
2023-03-13T07:47:00.750Z,12.00
2023-03-13T07:49:27.512Z,12.02
2023-03-13T07:51:54.317Z,12.06
2023-03-13T07:54:20.914Z,12.10
2023-03-13T07:56:47.473Z,12.12
2023-03-13T07:59:13.989Z,12.13
2023-03-13T08:01:40.583Z,12.24
2023-03-13T08:04:07.626Z,12.26
2023-03-13T08:06:36.598Z,12.31
2023-03-13T08:09:03.726Z,12.36
2023-03-13T08:11:30.257Z,12.41
2023-03-13T08:13:57.640Z,12.48
2023-03-13T08:16:29.581Z,12.62
2023-03-13T08:18:58.479Z,12.66
2023-03-13T08:21:30.536Z,12.68
2023-03-13T08:23:59.726Z,12.75
2023-03-13T08:26:28.427Z,12.91
2023-03-13T08:28:57.808Z,13.01
2023-03-13T08:31:26.293Z,13.04
2023-03-13T08:33:53.554Z,13.16
2023-03-13T08:36:26.185Z,13.23
2023-03-13T08:38:55.169Z,13.32
2023-03-13T08:41:24.774Z,13.57
2023-03-13T08:43:55.165Z,13.67
2023-03-13T08:46:22.273Z,13.84
2023-03-13T08:48:53.971Z,14.02
2023-03-13T08:51:23.297Z,14.15
2023-03-13T08:53:50.580Z,14.21
2023-03-13T08:56:20.159Z,14.31
2023-03-13T08:58:54.219Z,14.35
2023-03-13T09:01:23.401Z,14.47
2023-03-13T09:03:50.627Z,14.54
2023-03-13T09:06:17.508Z,14.64
2023-03-13T09:08:44.966Z,14.66
2023-03-13T09:11:17.126Z,14.70
2023-03-13T09:13:46.107Z,14.76
2023-03-13T09:16:24.220Z,14.91
2023-03-13T09:18:51.890Z,14.94
2023-03-13T09:21:27.450Z,15.07
2023-03-13T09:23:54.384Z,15.19
2023-03-13T09:26:23.384Z,15.28
2023-03-13T09:28:51.641Z,15.47
2023-03-13T09:31:19.451Z,15.62
2023-03-13T09:33:47.721Z,15.81
2023-03-13T09:36:14.905Z,15.90
2023-03-13T09:38:41.551Z,15.89
2023-03-13T09:41:17.339Z,16.03
2023-03-13T09:44:02.124Z,16.11
2023-03-13T09:46:37.029Z,16.20
2023-03-13T09:49:31.002Z,16.33
2023-03-13T09:52:17.620Z,16.41
2023-03-13T09:54:50.970Z,16.56
2023-03-13T09:57:24.246Z,16.62
2023-03-13T09:59:59.077Z,16.74
2023-03-13T10:02:31.353Z,16.78
2023-03-13T10:05:10.793Z,16.78
2023-03-13T10:07:37.377Z,16.88
2023-03-13T10:10:08.042Z,16.98
2023-03-13T10:12:52.585Z,17.04
2023-03-13T10:15:43.479Z,17.05
2023-03-13T10:18:20.543Z,17.05
2023-03-13T10:20:50.596Z,17.05
2023-03-13T10:23:27.653Z,17.21
2023-03-13T10:25:54.280Z,17.28
2023-03-13T10:28:22.557Z,17.42
2023-03-13T10:30:54.414Z,17.45
2023-03-13T10:33:29.949Z,17.45
2023-03-13T10:36:08.046Z,17.53
2023-03-13T10:38:46.324Z,17.57
2023-03-13T10:41:38.975Z,17.69
2023-03-13T10:44:14.918Z,17.77
2023-03-13T10:46:43.464Z,17.71
2023-03-13T10:49:16.099Z,17.74
2023-03-13T10:51:50.678Z,17.76
2023-03-13T10:54:28.169Z,17.66
2023-03-13T10:57:19.969Z,17.75
2023-03-13T10:59:50.076Z,17.81
2023-03-13T11:02:27.243Z,17.84
2023-03-13T11:04:54.351Z,17.91
2023-03-13T11:07:36.216Z,17.99
2023-03-13T11:10:20.913Z,18.03
2023-03-13T11:12:53.155Z,18.04
2023-03-13T11:15:31.028Z,18.14
2023-03-13T11:18:04.794Z,18.23
2023-03-13T11:20:36.009Z,18.27
2023-03-13T11:23:05.948Z,18.30
2023-03-13T11:25:43.609Z,18.32
2023-03-13T11:28:29.886Z,18.29
2023-03-13T11:31:13.970Z,18.35
2023-03-13T11:33:58.934Z,18.43
2023-03-13T11:36:53.574Z,18.49
2023-03-13T11:39:44.540Z,18.57
2023-03-13T11:42:23.197Z,18.50
2023-03-13T11:45:20.294Z,18.58
2023-03-13T11:48:01.010Z,18.70
2023-03-13T11:50:56.964Z,18.79
2023-03-13T11:53:26.219Z,18.87
2023-03-13T11:56:04.569Z,18.89
2023-03-13T11:58:55.984Z,18.87
2023-03-13T12:01:30.086Z,19.01
2023-03-13T12:04:25.683Z,19.02
2023-03-13T12:07:05.363Z,19.11
2023-03-13T12:09:41.929Z,19.11
2023-03-13T12:12:48.770Z,19.15
2023-03-13T12:15:38.003Z,19.27
2023-03-13T12:18:04.590Z,19.26
2023-03-13T12:20:50.185Z,19.34
2023-03-13T12:23:26.267Z,19.37
2023-03-13T12:26:06.147Z,19.34
2023-03-13T12:28:45.638Z,19.42
2023-03-13T12:31:36.285Z,19.45
2023-03-13T12:34:22.294Z,19.50
2023-03-13T12:36:54.122Z,19.57
2023-03-13T12:39:40.634Z,19.65
2023-03-13T12:42:07.774Z,19.74
2023-03-13T12:44:34.833Z,19.70
2023-03-13T12:47:23.276Z,19.61
2023-03-13T12:50:07.858Z,19.66
2023-03-13T12:52:37.441Z,19.74
2023-03-13T12:55:19.185Z,19.78
2023-03-13T12:58:01.015Z,19.73
2023-03-13T13:00:30.273Z,19.74
2023-03-13T13:03:31.150Z,19.73
2023-03-13T13:06:15.223Z,19.68
2023-03-13T13:08:46.939Z,19.73
2023-03-13T13:11:35.268Z,19.74
2023-03-13T13:14:06.005Z,19.71
2023-03-13T13:16:33.598Z,19.64
2023-03-13T13:19:41.620Z,19.55
2023-03-13T13:22:36.701Z,19.55
2023-03-13T13:25:18.379Z,19.65
2023-03-13T13:27:44.852Z,19.69
2023-03-13T13:30:17.409Z,19.71
2023-03-13T13:32:48.042Z,19.73
2023-03-13T13:35:23.879Z,19.73
2023-03-13T13:37:50.750Z,19.70
2023-03-13T13:40:23.848Z,19.53
2023-03-13T13:42:59.108Z,19.52
2023-03-13T13:45:27.659Z,19.54
2023-03-13T13:48:16.038Z,19.51
2023-03-13T13:51:18.638Z,19.51
2023-03-13T13:54:02.590Z,19.54
2023-03-13T13:56:32.442Z,19.43
2023-03-13T13:59:04.884Z,19.48
2023-03-13T14:01:33.523Z,19.51
2023-03-13T14:04:35.384Z,19.49
2023-03-13T14:07:04.726Z,19.43
2023-03-13T14:09:40.451Z,19.38
2023-03-13T14:12:25.172Z,19.45
2023-03-13T14:15:24.283Z,19.47
2023-03-13T14:17:57.258Z,19.35
2023-03-13T14:20:30.534Z,19.28
2023-03-13T14:23:01.587Z,19.20
2023-03-13T14:25:41.650Z,19.22
2023-03-13T14:28:20.361Z,19.22
2023-03-13T14:30:49.463Z,19.08
2023-03-13T14:33:16.832Z,19.00
2023-03-13T14:35:43.871Z,18.92
2023-03-13T14:38:22.771Z,18.93
2023-03-13T14:40:51.173Z,18.95
2023-03-13T14:43:22.817Z,19.05
2023-03-13T14:45:50.300Z,18.92
2023-03-13T14:48:27.979Z,19.00
2023-03-13T14:51:15.133Z,18.94
2023-03-13T14:53:54.070Z,19.02
2023-03-13T14:56:21.092Z,18.96
2023-03-13T14:58:51.635Z,18.95
2023-03-13T15:01:31.224Z,18.97
2023-03-13T15:03:57.861Z,18.86
2023-03-13T15:06:26.090Z,18.88
2023-03-13T15:09:15.703Z,18.90
2023-03-13T15:11:54.694Z,18.96
2023-03-13T15:14:53.996Z,18.89
2023-03-13T15:17:26.036Z,18.86
2023-03-13T15:19:58.162Z,18.82
2023-03-13T15:22:32.816Z,18.81
2023-03-13T15:25:07.959Z,18.71
2023-03-13T15:27:35.266Z,18.77
2023-03-13T15:30:02.045Z,18.75
2023-03-13T15:32:35.985Z,18.69
2023-03-13T15:35:03.404Z,18.65
2023-03-13T15:37:31.033Z,18.67
2023-03-13T15:39:58.088Z,18.63
2023-03-13T15:42:25.941Z,18.60
2023-03-13T15:44:52.524Z,18.50
2023-03-13T15:47:22.090Z,18.50
2023-03-13T15:49:48.819Z,18.45
2023-03-13T15:52:22.983Z,18.35
2023-03-13T15:54:50.321Z,18.45
2023-03-13T15:57:20.077Z,18.47
2023-03-13T15:59:46.590Z,18.49
2023-03-13T16:02:23.971Z,18.52
2023-03-13T16:04:52.013Z,18.51
2023-03-13T16:07:21.887Z,18.41
2023-03-13T16:09:49.044Z,18.33
2023-03-13T16:12:15.622Z,18.38
2023-03-13T16:14:42.262Z,18.38
2023-03-13T16:17:20.287Z,18.35
2023-03-13T16:19:47.938Z,18.32
2023-03-13T16:22:15.095Z,18.30
2023-03-13T16:24:42.318Z,18.25
2023-03-13T16:27:19.830Z,18.30
2023-03-13T16:29:46.679Z,18.28
2023-03-13T16:32:16.199Z,18.17
2023-03-13T16:34:43.168Z,18.21
2023-03-13T16:37:12.808Z,18.22
2023-03-13T16:39:39.334Z,18.15
2023-03-13T16:42:05.874Z,18.13
2023-03-13T16:44:32.436Z,18.00
2023-03-13T16:47:05.070Z,18.00
2023-03-13T16:49:32.521Z,18.01
2023-03-13T16:51:59.104Z,17.77
2023-03-13T16:54:25.671Z,17.68
2023-03-13T16:56:52.364Z,17.65
2023-03-13T16:59:19.076Z,17.59
2023-03-13T17:01:47.099Z,17.42
2023-03-13T17:04:14.420Z,17.31
2023-03-13T17:06:42.935Z,17.28
2023-03-13T17:09:13.634Z,17.27
2023-03-13T17:11:40.310Z,17.24
2023-03-13T17:14:07.185Z,17.19
2023-03-13T17:16:36.409Z,17.13
2023-03-13T17:19:03.690Z,17.17
2023-03-13T17:21:32.159Z,17.23
2023-03-13T17:24:00.537Z,17.16
2023-03-13T17:26:33.159Z,16.88
2023-03-13T17:29:00.562Z,16.87
2023-03-13T17:31:28.652Z,16.96
2023-03-13T17:33:55.226Z,16.81
2023-03-13T17:36:28.516Z,16.52
2023-03-13T17:39:00.189Z,16.43
2023-03-13T17:41:29.578Z,16.44
2023-03-13T17:43:56.959Z,16.39
2023-03-13T17:46:30.058Z,16.29
2023-03-13T17:48:57.239Z,16.26
2023-03-13T17:51:26.907Z,16.15
2023-03-13T17:53:55.027Z,16.23
2023-03-13T17:56:23.065Z,16.29
2023-03-13T17:58:51.316Z,16.35
2023-03-13T18:01:21.533Z,16.36
2023-03-13T18:03:49.171Z,16.39
2023-03-13T18:06:17.725Z,16.54
2023-03-13T18:08:44.931Z,16.38
2023-03-13T18:11:12.098Z,16.23
2023-03-13T18:13:39.388Z,16.11
2023-03-13T18:16:40.545Z,16.00
2023-03-13T18:19:15.256Z,15.93
2023-03-13T18:21:43.501Z,15.70
2023-03-13T18:24:11.371Z,15.58
2023-03-13T18:26:40.003Z,15.51
2023-03-13T18:29:13.824Z,15.41
2023-03-13T18:31:43.657Z,15.43
2023-03-13T18:34:11.672Z,15.48
2023-03-13T18:36:38.664Z,15.44
2023-03-13T18:39:06.408Z,15.44
2023-03-13T18:41:34.309Z,15.45
2023-03-13T18:44:03.737Z,15.43
2023-03-13T18:46:33.440Z,15.40
2023-03-13T18:49:01.148Z,15.43
2023-03-13T18:51:28.638Z,15.43
2023-03-13T18:53:58.038Z,15.46
2023-03-13T18:56:28.496Z,15.53
2023-03-13T18:58:56.022Z,15.62
2023-03-13T19:01:25.654Z,15.34
2023-03-13T19:03:52.549Z,15.00
2023-03-13T19:06:24.815Z,14.74
2023-03-13T19:08:54.423Z,14.59
2023-03-13T19:11:23.747Z,14.42
2023-03-13T19:13:50.585Z,14.17
2023-03-13T19:16:36.053Z,14.00
2023-03-13T19:19:04.282Z,13.89
2023-03-13T19:21:31.890Z,13.74
2023-03-13T19:23:58.646Z,13.70
2023-03-13T19:26:39.164Z,13.64
2023-03-13T19:29:14.323Z,13.49
2023-03-13T19:31:41.485Z,13.46
2023-03-13T19:34:08.219Z,13.44
2023-03-13T19:36:39.737Z,13.45
2023-03-13T19:39:13.525Z,13.45
2023-03-13T19:41:40.045Z,13.34
2023-03-13T19:44:06.693Z,13.27
2023-03-13T19:46:33.953Z,13.24
2023-03-13T19:49:02.014Z,13.12
2023-03-13T19:51:29.706Z,13.15
2023-03-13T19:53:57.252Z,13.09
2023-03-13T19:56:29.554Z,13.00
2023-03-13T19:59:01.701Z,13.00
2023-03-13T20:01:28.559Z,12.95
2023-03-13T20:03:55.200Z,12.90
2023-03-13T20:06:27.762Z,12.92
2023-03-13T20:08:59.125Z,12.83
2023-03-13T20:11:26.489Z,12.85
2023-03-13T20:13:53.690Z,12.88
2023-03-13T20:16:20.923Z,12.71
2023-03-13T20:18:50.400Z,12.73
2023-03-13T20:21:18.099Z,12.58
2023-03-13T20:23:47.385Z,12.56
2023-03-13T20:26:15.738Z,12.48
2023-03-13T20:28:45.834Z,12.10
2023-03-13T20:31:13.152Z,12.01
2023-03-13T20:33:40.571Z,11.66
2023-03-13T20:36:11.239Z,11.51
2023-03-13T20:38:39.140Z,11.33
2023-03-13T20:41:06.795Z,11.28
2023-03-13T20:43:34.557Z,11.22
2023-03-13T20:46:01.371Z,11.20
2023-03-13T20:48:29.376Z,11.18
2023-03-13T20:50:58.689Z,11.19
2023-03-13T20:53:26.888Z,11.11
2023-03-13T20:55:54.494Z,11.13
2023-03-13T20:58:21.359Z,11.08
2023-03-13T21:00:48.771Z,11.07
2023-03-13T21:03:17.253Z,11.10
2023-03-13T21:05:44.635Z,11.12
2023-03-13T21:08:11.812Z,11.10
2023-03-13T21:10:40.063Z,11.12
2023-03-13T21:13:07.612Z,11.22
2023-03-13T21:15:34.604Z,11.22
2023-03-13T21:18:01.315Z,11.19
2023-03-13T21:20:28.989Z,11.17
2023-03-13T21:22:55.682Z,11.10
2023-03-13T21:25:22.905Z,11.19
2023-03-13T21:27:49.834Z,11.12
2023-03-13T21:30:19.846Z,11.13
2023-03-13T21:32:47.502Z,11.10
2023-03-13T21:35:15.532Z,11.13
2023-03-13T21:37:42.848Z,11.13
2023-03-13T21:40:10.917Z,11.16
2023-03-13T21:42:37.701Z,11.27
2023-03-13T21:45:06.587Z,11.18
2023-03-13T21:47:36.901Z,11.26
2023-03-13T21:50:06.092Z,11.32
2023-03-13T21:52:34.459Z,11.19
2023-03-13T21:55:03.467Z,11.15
2023-03-13T21:57:30.041Z,11.25
2023-03-13T21:59:56.638Z,11.27
2023-03-13T22:02:23.286Z,11.30
2023-03-13T22:04:49.836Z,11.30
2023-03-13T22:07:16.375Z,11.37
2023-03-13T22:09:42.918Z,11.37
2023-03-13T22:12:09.416Z,11.38
2023-03-13T22:14:36.116Z,11.20
2023-03-13T22:17:02.677Z,11.33
2023-03-13T22:19:29.265Z,11.25
2023-03-13T22:21:55.802Z,11.33
2023-03-13T22:24:22.438Z,11.21
2023-03-13T22:26:48.969Z,11.21
2023-03-13T22:29:16.344Z,11.37
2023-03-13T22:31:43.510Z,11.23
2023-03-13T22:34:10.106Z,11.27
2023-03-13T22:36:38.076Z,11.21
2023-03-13T22:39:04.646Z,11.27
2023-03-13T22:41:31.186Z,11.23
2023-03-13T22:43:57.743Z,11.21
2023-03-13T22:46:24.515Z,11.17
2023-03-13T22:48:51.025Z,11.16
2023-03-13T22:51:17.655Z,11.16
2023-03-13T22:53:44.884Z,11.16
2023-03-13T22:56:12.408Z,11.20
2023-03-13T22:58:40.833Z,11.20
2023-03-13T23:01:16.691Z,11.15
2023-03-13T23:03:44.055Z,11.08
2023-03-13T23:06:23.668Z,11.15
2023-03-13T23:08:50.722Z,11.14
2023-03-13T23:11:18.350Z,11.08
2023-03-13T23:13:45.359Z,11.18
2023-03-13T23:16:12.854Z,11.11
2023-03-13T23:18:39.940Z,11.16
2023-03-13T23:21:09.537Z,11.07
2023-03-13T23:23:36.212Z,10.93
2023-03-13T23:26:04.546Z,11.04
2023-03-13T23:28:31.318Z,11.17
2023-03-13T23:30:57.829Z,11.26
2023-03-13T23:33:24.383Z,11.22
2023-03-13T23:35:51.008Z,11.18
2023-03-13T23:38:20.659Z,11.02
2023-03-13T23:40:47.772Z,11.09
2023-03-13T23:43:14.287Z,11.03
2023-03-13T23:45:40.821Z,10.98
2023-03-13T23:48:07.373Z,10.99
2023-03-13T23:50:33.921Z,10.99
2023-03-13T23:53:00.461Z,10.93
2023-03-13T23:55:27.051Z,10.86
2023-03-13T23:57:53.719Z,10.88
